Sheridan, WY (82801)

12:39 PM MDT on April 28, 2017 (GMT -0600)
South Sheridan | | Change Station
Active Advisory: Winter Storm Warning

Elev 3770 ft 44.79 °N, 106.95 °W | Updated 4 seconds ago

Overcast
Overcast
41.9 °F
Feels Like 42 °F
N
0.0
Wind Variable Wind from NNW
Gusts 0.0 mph

Today
High -- | Low -- °F
--% Chance of Precip.
Yesterday
High -- | Low -- °F
Precip. -- in
Pressure 29.99 in
Visibility 10.0 miles
Clouds Mostly Cloudy 2700 ft
Mostly Cloudy 4000 ft
Overcast 5000 ft
Windchill 42 °F
Dew Point 36 °F
Humidity 78%
Rainfall 1.44 in
Snow Depth Not available.
6:01 AM 8:09 PM
Waxing Crescent, 8% visible
SPECI KSHR 281812Z AUTO 30008KT 10SM BKN027 BKN040 OVC050 03/00 A2999 RMK AO2 T00330000
Pressure 29.99 in
Visibility 10.0 miles
Clouds Mostly Cloudy 2700 ft
Mostly Cloudy 4000 ft
Overcast 5000 ft
Windchill 42 °F
Dew Point 36 °F
Humidity 78%
Rainfall 1.44 in
Snow Depth Not available.
6:01 AM 8:09 PM
Waxing Crescent, 8% visible
SPECI KSHR 281812Z AUTO 30008KT 10SM BKN027 BKN040 OVC050 03/00 A2999 RMK AO2 T00330000

Get Your Daily Forecast Email!

Thanks for signing up!

Be on the lookout for a verification email in your inbox.

You'll start receiving severe weather alerts in your inbox..

×

10-Day Weather Forecast

Almanac

Astronomy

Apr. 28, 2017 Rise Set
Actual Time
Civil Twilight
Nautical Twilight
Astronomical Twilight
Moon
Length of Visible Light
Length of Day
Tomorrow will be .
, % of the Moon is Illuminated

Today's Extremes

State Highs State Lows

Community

WunderPhotos

WunderBlog® & News

Nearby

Air Quality

  Air Quality AQ Index Pollutant
Not available.

Snow Depth

Station Depth Elevation

Earthquake Activity

City Distance Mag. Time & Date
Minimum magnitude displayed is 2.5.

Coastal Water Temperatures

Place Temperature

Stations

Nearby Weather Stations

Station Location Temp. Windchill Dew Point Humidity Wind Precip. Elev Updated Type
                   

Watches & Warnings

Winter Storm Warning
Issued: 9:40 AM MDT Apr. 28, 2017 – National Weather Service

... Winter Storm Warning remains in effect until midnight MDT
tonight...

* impacts... periods of wet snow will cause difficult travel
conditions due to poor visibility and snow packed or slushy
roads. This includes portions of Interstate 90. Power outages
are possible.

* Timing... snow will continue through today... tapering off late.

* Snow accumulation... nearly a foot of snow has been reported in
the higher foothills west of Sheridan. Additional snowfall of 2
to 4 inches can be expected, mainly west of Interstate 90.

Precautionary/preparedness actions...

A Winter Storm Warning means a significant amount of snow is
expected or occurring. Visibility will be quite poor at times
making travel very hazardous.